Time;durP1;ratioP1;P1;durP2;ratioP2;P2;SDS_P1;SDS_P2;PMS_P1;PMS_P2;Temp;Humidity;BMP_temperature;BMP_pressure;BME280_temperature;BME280_humidity;BME280_pressure;Samples;Min_cycle;Max_cycle;Signal;HPM_P1;HPM_P2
2021/03/28 00:01:03;;;;;;;6.40;2.43;;;9.30;90.20;;;;;;5059230;28;20428;-79
2021/03/28 00:03:36;;;;;;;6.57;2.40;;;9.10;90.30;;;;;;5057128;28;20471;-78
2021/03/28 00:06:18;;;;;;;5.73;2.67;;;8.80;90.60;;;;;;5056751;28;20472;-80
2021/03/28 00:08:47;;;;;;;9.50;2.87;;;8.90;91.00;;;;;;5056941;28;20503;-79
2021/03/28 00:11:20;;;;;;;8.33;2.83;;;8.80;91.10;;;;;;5057727;28;20591;-79
2021/03/28 00:13:55;;;;;;;6.47;2.60;;;8.80;91.30;;;;;;5059275;28;20453;-79
2021/03/28 00:16:26;;;;;;;8.70;2.50;;;8.70;91.50;;;;;;5045012;28;20452;-80
2021/03/28 00:19:20;;;;;;;7.93;2.70;;;8.60;91.70;;;;;;5040632;28;20245;-80
2021/03/28 00:21:51;;;;;;;8.70;3.23;;;8.70;91.80;;;;;;5038889;28;20629;-80
2021/03/28 00:24:22;;;;;;;5.50;2.23;;;8.70;92.00;;;;;;5036554;28;20532;-80
2021/03/28 00:27:05;;;;;;;5.93;3.10;;;8.70;92.20;;;;;;5065120;28;20507;-80
2021/03/28 00:29:46;;;;;;;5.50;2.90;;;8.10;92.00;;;;;;5060651;28;20654;-80
2021/03/28 00:32:18;;;;;;;5.57;2.60;;;8.40;92.30;;;;;;5054645;28;20475;-79
2021/03/28 00:34:51;;;;;;;9.40;5.57;;;8.30;92.50;;;;;;5057633;28;20464;-80
2021/03/28 00:37:23;;;;;;;6.68;3.03;;;8.30;92.90;;;;;;5057555;28;20449;-80
2021/03/28 00:39:51;;;;;;;8.65;3.10;;;8.40;93.10;;;;;;5056925;28;20214;-79
2021/03/28 00:42:32;;;;;;;7.53;2.95;;;8.40;93.30;;;;;;5057204;28;20309;-80
2021/03/28 00:45:10;;;;;;;7.10;2.77;;;8.30;93.30;;;;;;5047867;28;20326;-80
2021/03/28 00:47:38;;;;;;;12.63;3.57;;;8.40;93.50;;;;;;5038461;28;20570;-79
2021/03/28 00:50:33;;;;;;;10.60;5.30;;;8.20;93.50;;;;;;5037320;28;21002;-79
2021/03/28 00:53:03;;;;;;;9.13;2.77;;;8.20;93.50;;;;;;5030443;28;20537;-79
2021/03/28 00:55:33;;;;;;;5.70;2.93;;;8.20;93.70;;;;;;5039168;28;20553;-79
2021/03/28 00:58:09;;;;;;;10.40;3.05;;;8.10;93.70;;;;;;5049570;28;20475;-79
2021/03/28 01:01:00;;;;;;;17.45;2.92;;;8.10;93.80;;;;;;5056119;28;20218;-80
2021/03/28 01:03:36;;;;;;;8.57;2.33;;;7.90;93.90;;;;;;5056094;28;20213;-79
2021/03/28 01:06:16;;;;;;;6.35;2.88;;;7.90;94.00;;;;;;5055798;28;20302;-79
2021/03/28 01:08:58;;;;;;;6.28;2.08;;;8.00;94.30;;;;;;5056583;28;20245;-79
2021/03/28 01:11:43;;;;;;;5.22;2.63;;;8.00;94.50;;;;;;5051399;28;20230;-79
2021/03/28 01:14:30;;;;;;;7.13;2.63;;;7.90;94.50;;;;;;5040606;28;20224;-79
2021/03/28 01:17:12;;;;;;;5.45;2.35;;;7.80;94.60;;;;;;5055185;28;20436;-79
2021/03/28 01:20:15;;;;;;;6.60;2.22;;;7.90;94.60;;;;;;5054628;28;20371;-79
2021/03/28 01:22:49;;;;;;;6.40;2.40;;;7.80;94.80;;;;;;5042166;28;20206;-79
2021/03/28 01:25:35;;;;;;;7.15;2.38;;;7.80;95.00;;;;;;5052795;28;20253;-79
2021/03/28 01:28:19;;;;;;;7.32;2.80;;;7.80;95.10;;;;;;5075232;28;20390;-79
2021/03/28 01:30:50;;;;;;;6.65;2.50;;;7.90;95.40;;;;;;5075823;28;20281;-79
2021/03/28 01:33:21;;;;;;;7.55;2.20;;;7.70;95.40;;;;;;5076852;28;20652;-79
2021/03/28 01:35:59;;;;;;;6.00;2.63;;;7.80;95.50;;;;;;5076237;28;20316;-79
2021/03/28 01:38:30;;;;;;;6.80;2.60;;;7.50;95.70;;;;;;5077157;28;20206;-79
2021/03/28 01:41:00;;;;;;;5.90;2.50;;;7.60;96.00;;;;;;5057232;28;20289;-78
2021/03/28 01:43:37;;;;;;;9.88;2.83;;;7.60;96.30;;;;;;5052370;28;20202;-79
2021/03/28 01:46:14;;;;;;;5.38;2.55;;;7.50;96.30;;;;;;5036091;28;20259;-79
2021/03/28 01:48:52;;;;;;;9.75;2.70;;;7.40;96.70;;;;;;5049524;28;20231;-79
2021/03/28 01:51:53;;;;;;;7.57;2.53;;;7.30;97.10;;;;;;5034286;28;20636;-79
2021/03/28 01:54:39;;;;;;;5.75;2.42;;;7.20;97.30;;;;;;5034444;28;20393;-79
2021/03/28 01:57:12;;;;;;;7.00;2.20;;;7.30;97.80;;;;;;5034992;28;20780;-79
2021/03/28 01:59:54;;;;;;;6.47;2.10;;;7.10;97.60;;;;;;5048879;28;20213;-79
2021/03/28 02:02:34;;;;;;;8.73;2.65;;;7.20;97.70;;;;;;5054101;28;20476;-79
2021/03/28 02:05:13;;;;;;;6.88;2.55;;;7.10;97.80;;;;;;5053204;28;20329;-79
2021/03/28 02:07:56;;;;;;;10.05;2.03;;;7.10;98.00;;;;;;5053293;28;20289;-79
2021/03/28 02:10:47;;;;;;;15.43;2.72;;;7.20;98.10;;;;;;5055834;28;20218;-79
2021/03/28 02:13:18;;;;;;;7.20;2.17;;;7.10;98.10;;;;;;5032091;28;20293;-79
2021/03/28 02:16:00;;;;;;;7.72;2.97;;;7.30;98.30;;;;;;5053595;28;20309;-79
2021/03/28 02:18:53;;;;;;;6.65;2.40;;;7.10;98.30;;;;;;5053290;28;20618;-79
2021/03/28 02:21:28;;;;;;;7.95;2.63;;;7.00;98.50;;;;;;5053712;28;20216;-79
2021/03/28 02:24:00;;;;;;;6.38;2.63;;;6.80;98.70;;;;;;5053580;28;20276;-79
2021/03/28 02:26:33;;;;;;;8.05;2.20;;;6.70;99.00;;;;;;5060006;28;20279;-79
2021/03/28 02:29:22;;;;;;;3.95;1.73;;;6.80;99.20;;;;;;5053759;28;20241;-80
2021/03/28 02:32:14;;;;;;;6.72;2.40;;;6.70;99.40;;;;;;5054045;28;20737;-80
2021/03/28 02:34:54;;;;;;;9.13;2.42;;;6.70;99.70;;;;;;5049901;28;20768;-79
2021/03/28 02:37:34;;;;;;;4.93;2.38;;;6.50;99.90;;;;;;5055782;28;20226;-80
2021/03/28 02:40:12;;;;;;;5.45;2.55;;;6.60;99.90;;;;;;5054452;28;20618;-79
2021/03/28 02:42:55;;;;;;;6.38;1.80;;;6.50;99.90;;;;;;5034046;28;20210;-79
2021/03/28 02:45:24;;;;;;;6.70;2.15;;;6.80;99.90;;;;;;5049122;28;20649;-79
2021/03/28 02:48:19;;;;;;;6.55;2.22;;;6.60;99.90;;;;;;5053151;28;20326;-79
2021/03/28 02:51:08;;;;;;;7.70;2.40;;;6.70;99.90;;;;;;5053090;28;20264;-79
2021/03/28 02:53:48;;;;;;;6.25;2.20;;;6.70;99.90;;;;;;5053684;28;20308;-79
2021/03/28 02:56:46;;;;;;;8.32;2.45;;;6.50;99.90;;;;;;5052816;28;20223;-79
2021/03/28 02:59:40;;;;;;;6.38;2.05;;;6.50;99.90;;;;;;5066610;28;20302;-79
2021/03/28 03:02:49;;;;;;;6.88;2.25;;;6.40;99.90;;;;;;5048147;28;20202;-80
2021/03/28 03:05:37;;;;;;;5.63;2.17;;;6.60;99.90;;;;;;5051120;28;20344;-80
2021/03/28 03:08:09;;;;;;;4.80;2.00;;;6.50;99.90;;;;;;5051427;28;20233;-80
2021/03/28 03:11:00;;;;;;;5.72;2.00;;;6.50;99.90;;;;;;5031705;28;20218;-80
2021/03/28 03:14:09;;;;;;;6.07;2.20;;;6.50;99.90;;;;;;5031942;28;20276;-80
2021/03/28 03:17:31;;;;;;;5.68;2.00;;;6.40;99.90;;;;;;4983244;28;20239;-80
2021/03/28 03:20:52;;;;;;;6.05;2.20;;;6.30;99.90;;;;;;5057921;28;20226;-79
2021/03/28 03:23:44;;;;;;;10.63;2.88;;;6.50;99.90;;;;;;5061577;28;20203;-80
2021/03/28 03:26:43;;;;;;;6.28;2.08;;;6.30;99.90;;;;;;5060635;28;20403;-80
2021/03/28 03:29:48;;;;;;;8.18;2.28;;;6.50;99.90;;;;;;5071914;28;20293;-79
2021/03/28 03:32:35;;;;;;;7.65;2.03;;;6.40;99.90;;;;;;5072207;28;20210;-79
2021/03/28 03:35:20;;;;;;;10.73;2.00;;;6.30;99.90;;;;;;5048347;28;20252;-80
2021/03/28 03:38:10;;;;;;;6.57;2.17;;;6.40;99.90;;;;;;5071296;28;20252;-80
2021/03/28 03:41:02;;;;;;;5.85;2.38;;;6.30;99.90;;;;;;5071109;28;20686;-80
2021/03/28 03:43:53;;;;;;;4.15;2.10;;;6.40;99.90;;;;;;5063742;28;20203;-79
2021/03/28 03:46:35;;;;;;;8.50;2.13;;;6.30;99.90;;;;;;5052563;28;20270;-79
2021/03/28 03:49:40;;;;;;;3.70;2.00;;;6.20;99.90;;;;;;5052326;28;20301;-80
2021/03/28 03:52:54;;;;;;;6.05;2.28;;;6.30;99.90;;;;;;5063755;28;20249;-79
2021/03/28 03:55:30;;;;;;;4.40;1.70;;;6.30;99.90;;;;;;4973692;28;20311;-79
2021/03/28 03:58:06;;;;;;;3.45;1.63;;;6.10;99.90;;;;;;5029007;28;20320;-80
2021/03/28 04:00:48;;;;;;;6.78;2.20;;;6.10;99.90;;;;;;5039268;28;20203;-79
2021/03/28 04:03:22;;;;;;;5.57;1.90;;;6.30;99.90;;;;;;5053375;28;20202;-80
2021/03/28 04:06:13;;;;;;;9.05;2.08;;;6.40;99.90;;;;;;5051844;28;20332;-79
2021/03/28 04:09:16;;;;;;;5.22;1.80;;;6.40;99.90;;;;;;5056021;28;20229;-79
2021/03/28 04:11:57;;;;;;;5.00;1.83;;;6.30;99.90;;;;;;5055309;28;20288;-80
2021/03/28 04:14:38;;;;;;;5.15;2.10;;;6.20;99.90;;;;;;5056371;28;20218;-79
2021/03/28 04:17:20;;;;;;;10.95;2.53;;;6.20;99.90;;;;;;5057341;28;20202;-80
2021/03/28 04:20:00;;;;;;;4.70;1.92;;;6.20;99.90;;;;;;5056544;28;20210;-80
2021/03/28 04:22:58;;;;;;;8.07;2.40;;;6.20;99.90;;;;;;5045324;28;20199;-80
2021/03/28 04:25:38;;;;;;;8.68;2.22;;;6.00;99.90;;;;;;5038737;28;20638;-80
2021/03/28 04:28:33;;;;;;;12.02;2.65;;;6.20;99.90;;;;;;5075639;28;20225;-79
2021/03/28 04:31:15;;;;;;;6.70;1.75;;;6.10;99.90;;;;;;5051838;28;20218;-80
2021/03/28 04:33:47;;;;;;;5.43;2.13;;;6.30;99.90;;;;;;5035634;28;20298;-79
2021/03/28 04:36:20;;;;;;;5.45;2.13;;;6.00;99.90;;;;;;5035695;28;20397;-79
2021/03/28 04:39:10;;;;;;;6.07;2.72;;;6.30;99.90;;;;;;5035437;28;20207;-79
2021/03/28 04:42:15;;;;;;;7.60;2.10;;;6.30;99.90;;;;;;5006028;28;20233;-79
2021/03/28 04:45:07;;;;;;;12.10;2.42;;;6.40;99.90;;;;;;5035626;28;20563;-79
2021/03/28 04:48:07;;;;;;;5.03;1.92;;;6.10;99.90;;;;;;5036523;28;20235;-80
2021/03/28 04:51:04;;;;;;;4.60;2.22;;;6.20;99.90;;;;;;5043274;28;20302;-79
2021/03/28 04:54:10;;;;;;;10.35;2.13;;;6.00;99.90;;;;;;5055948;28;20242;-80
2021/03/28 04:57:00;;;;;;;4.80;1.92;;;6.20;99.90;;;;;;5046876;28;20217;-80
2021/03/28 04:59:59;;;;;;;6.43;1.75;;;5.90;99.90;;;;;;5055499;28;20290;-80
2021/03/28 05:02:55;;;;;;;6.60;2.47;;;5.90;99.90;;;;;;5036423;28;20297;-79
2021/03/28 05:05:37;;;;;;;10.27;1.98;;;5.90;99.90;;;;;;5034668;28;20239;-80
2021/03/28 05:08:36;;;;;;;5.13;1.95;;;5.90;99.90;;;;;;5035923;28;20227;-79
2021/03/28 05:11:48;;;;;;;7.03;2.55;;;5.90;99.90;;;;;;5043560;28;20286;-79
2021/03/28 05:14:59;;;;;;;6.97;2.15;;;5.80;99.90;;;;;;5036233;28;20235;-79
2021/03/28 05:18:03;;;;;;;7.68;2.17;;;5.80;99.90;;;;;;5040447;28;20238;-78
2021/03/28 05:20:58;;;;;;;5.82;2.28;;;6.00;99.90;;;;;;5043229;28;20224;-78
2021/03/28 05:24:02;;;;;;;5.05;2.15;;;5.90;99.90;;;;;;5053461;28;20203;-79
2021/03/28 05:27:16;;;;;;;6.85;2.28;;;6.00;99.90;;;;;;5057905;28;20201;-79
2021/03/28 05:30:16;;;;;;;6.97;2.00;;;5.90;99.90;;;;;;5057233;28;20237;-79
2021/03/28 05:33:18;;;;;;;4.93;1.73;;;5.90;99.90;;;;;;5034868;28;20503;-80
2021/03/28 05:36:17;;;;;;;7.10;2.70;;;5.80;99.90;;;;;;5035658;28;20231;-79
2021/03/28 05:39:09;;;;;;;4.72;2.38;;;6.10;99.90;;;;;;5032418;28;20397;-79
2021/03/28 05:42:00;;;;;;;6.47;2.35;;;6.00;99.90;;;;;;5000111;28;20278;-80
2021/03/28 05:45:01;;;;;;;7.40;2.25;;;6.20;99.90;;;;;;5034735;28;20265;-80
2021/03/28 05:48:06;;;;;;;7.88;2.80;;;6.00;99.90;;;;;;5035715;28;20230;-79
2021/03/28 05:50:38;;;;;;;8.63;2.45;;;6.00;99.90;;;;;;5015567;28;20207;-79
2021/03/28 05:53:50;;;;;;;5.85;2.00;;;6.10;99.90;;;;;;5059278;28;20210;-80
2021/03/28 05:57:06;;;;;;;6.15;2.00;;;6.40;99.90;;;;;;5053067;28;20254;-80
2021/03/28 05:59:47;;;;;;;5.60;2.05;;;6.10;99.90;;;;;;5052800;28;20255;-80
2021/03/28 06:02:56;;;;;;;9.07;1.90;;;6.50;99.90;;;;;;5034497;28;20302;-80
2021/03/28 06:06:04;;;;;;;7.38;2.15;;;6.10;99.90;;;;;;4986332;28;20241;-80
2021/03/28 06:09:12;;;;;;;8.55;2.83;;;6.30;99.90;;;;;;5035901;28;20299;-80
2021/03/28 06:12:17;;;;;;;7.97;2.25;;;6.20;99.90;;;;;;5044731;28;20206;-80
2021/03/28 06:15:07;;;;;;;5.40;2.10;;;6.20;99.90;;;;;;5044616;28;20719;-80
2021/03/28 06:18:03;;;;;;;4.65;2.20;;;6.30;99.90;;;;;;5054971;28;20238;-79
2021/03/28 06:20:57;;;;;;;9.00;2.58;;;6.40;99.90;;;;;;5043957;28;20253;-79
2021/03/28 06:24:14;;;;;;;7.13;1.90;;;6.30;99.90;;;;;;5063912;28;20238;-79
2021/03/28 06:27:09;;;;;;;6.65;2.20;;;6.50;99.90;;;;;;5040632;28;20369;-80
2021/03/28 06:30:21;;;;;;;7.22;2.47;;;6.50;99.90;;;;;;5052096;28;20203;-80
2021/03/28 06:33:26;;;;;;;5.32;1.98;;;6.60;99.90;;;;;;5053386;28;20221;-79
2021/03/28 06:36:29;;;;;;;6.93;2.00;;;6.70;99.90;;;;;;5054987;28;20268;-79
2021/03/28 06:39:32;;;;;;;6.65;2.05;;;6.70;99.90;;;;;;5049722;28;20631;-80
2021/03/28 06:42:26;;;;;;;8.52;2.50;;;6.90;99.90;;;;;;5032987;28;20683;-80
2021/03/28 06:45:21;;;;;;;7.57;2.60;;;7.10;99.90;;;;;;5044497;28;20273;-80
2021/03/28 06:48:09;;;;;;;4.78;2.10;;;7.00;99.90;;;;;;5053018;28;20226;-80
2021/03/28 06:51:06;;;;;;;6.30;2.20;;;7.20;99.90;;;;;;5041349;28;20259;-79
2021/03/28 06:53:50;;;;;;;6.20;2.53;;;7.50;99.90;;;;;;5053607;28;20240;-80
2021/03/28 06:57:09;;;;;;;5.10;2.17;;;7.80;99.90;;;;;;5052940;28;20262;-80
2021/03/28 07:00:00;;;;;;;4.93;1.97;;;7.90;99.90;;;;;;4982031;28;20448;-81
2021/03/28 07:03:07;;;;;;;7.63;2.00;;;8.10;99.90;;;;;;5023229;28;20944;-81
2021/03/28 07:05:40;;;;;;;10.20;2.60;;;8.20;99.20;;;;;;5032217;28;20887;-79
2021/03/28 07:08:20;;;;;;;7.57;2.40;;;8.60;98.80;;;;;;5033348;28;20489;-79
2021/03/28 07:11:11;;;;;;;8.50;2.17;;;8.70;98.40;;;;;;5052760;28;20457;-79
2021/03/28 07:14:04;;;;;;;5.83;2.50;;;8.80;97.70;;;;;;5053189;28;20488;-80
2021/03/28 07:17:20;;;;;;;7.70;1.80;;;8.90;97.40;;;;;;5052772;28;20992;-79
2021/03/28 07:20:11;;;;;;;9.27;2.27;;;9.00;97.00;;;;;;5041301;28;20527;-79
2021/03/28 07:22:56;;;;;;;8.87;2.77;;;9.10;97.00;;;;;;5050354;28;20546;-79
2021/03/28 07:25:53;;;;;;;4.90;2.03;;;9.10;96.80;;;;;;5053426;28;20473;-79
2021/03/28 07:28:49;;;;;;;9.00;3.00;;;9.20;96.60;;;;;;5058677;28;20520;-80
2021/03/28 07:31:44;;;;;;;6.77;2.07;;;9.40;96.50;;;;;;5052570;28;20544;-80
2021/03/28 07:34:52;;;;;;;5.97;2.23;;;9.50;96.20;;;;;;5034485;28;20449;-79
2021/03/28 07:38:18;;;;;;;5.97;2.20;;;9.60;96.00;;;;;;5048967;28;20612;-79
2021/03/28 07:41:40;;;;;;;5.90;2.13;;;9.80;95.70;;;;;;5033944;28;20485;-80
2021/03/28 07:44:37;;;;;;;8.83;2.23;;;9.80;95.60;;;;;;5040976;28;20549;-79
2021/03/28 07:47:45;;;;;;;8.70;2.73;;;9.80;95.40;;;;;;5042055;28;20525;-79
2021/03/28 07:50:36;;;;;;;6.07;2.20;;;9.90;95.20;;;;;;5020861;28;21017;-80
2021/03/28 07:53:41;;;;;;;8.23;2.23;;;10.10;94.50;;;;;;5057685;28;20465;-79
2021/03/28 07:56:31;;;;;;;7.37;2.20;;;10.20;94.00;;;;;;5057272;28;20483;-79
2021/03/28 07:59:04;;;;;;;7.47;2.40;;;10.40;94.30;;;;;;5053515;28;20462;-79
2021/03/28 08:01:44;;;;;;;7.13;2.63;;;10.50;93.70;;;;;;5054922;28;20518;-79
2021/03/28 08:04:38;;;;;;;4.20;1.83;;;10.60;93.30;;;;;;5054988;28;20961;-79
2021/03/28 08:07:28;;;;;;;6.60;2.03;;;10.70;93.20;;;;;;5056667;28;20488;-79
2021/03/28 08:10:31;;;;;;;5.67;2.07;;;10.80;92.90;;;;;;5037956;28;20496;-79
2021/03/28 08:13:19;;;;;;;5.07;2.07;;;10.80;92.80;;;;;;5040637;28;20501;-79
2021/03/28 08:15:57;;;;;;;7.67;2.57;;;10.90;92.80;;;;;;5044055;28;20528;-79
2021/03/28 08:18:33;;;;;;;6.23;2.00;;;10.90;92.60;;;;;;5047493;28;20500;-79
2021/03/28 08:21:16;;;;;;;7.70;2.30;;;11.10;92.40;;;;;;5060625;28;20473;-79
2021/03/28 08:23:57;;;;;;;7.67;2.20;;;11.00;92.40;;;;;;5058045;28;20528;-79
2021/03/28 08:26:43;;;;;;;6.20;2.47;;;11.00;92.50;;;;;;5065384;28;20484;-79
2021/03/28 08:29:33;;;;;;;7.40;2.27;;;10.90;92.40;;;;;;5057768;28;20449;-79
2021/03/28 08:32:12;;;;;;;11.77;2.40;;;10.90;92.50;;;;;;5055454;28;20426;-79
2021/03/28 08:35:14;;;;;;;7.60;2.30;;;11.00;92.60;;;;;;5056310;28;20468;-80
2021/03/28 08:38:14;;;;;;;6.20;2.63;;;11.20;92.40;;;;;;5042549;28;20452;-80
2021/03/28 08:41:07;;;;;;;12.80;2.60;;;11.20;92.00;;;;;;5057459;28;20544;-80
2021/03/28 08:44:14;;;;;;;5.80;1.80;;;11.30;91.80;;;;;;5057296;28;20917;-79
2021/03/28 08:47:21;;;;;;;9.37;2.30;;;11.40;91.60;;;;;;5049345;28;20476;-79
2021/03/28 08:49:55;;;;;;;4.67;1.93;;;11.50;91.30;;;;;;5039195;28;20501;-78
2021/03/28 08:52:49;;;;;;;5.80;1.83;;;11.60;91.10;;;;;;5039843;28;20445;-79
2021/03/28 08:55:48;;;;;;;6.33;2.47;;;11.60;91.00;;;;;;5038281;28;20424;-79
2021/03/28 08:58:22;;;;;;;7.10;2.23;;;11.50;91.00;;;;;;5060420;28;20441;-78
2021/03/28 09:00:58;;;;;;;6.17;2.00;;;11.70;90.90;;;;;;5039895;28;20511;-79
2021/03/28 09:03:56;;;;;;;7.87;1.93;;;11.70;90.80;;;;;;5035171;28;20444;-79
2021/03/28 09:06:49;;;;;;;5.30;1.90;;;11.90;90.30;;;;;;5041894;28;20467;-79
2021/03/28 09:09:36;;;;;;;3.77;1.73;;;11.90;90.20;;;;;;5053417;28;20453;-79
2021/03/28 09:12:19;;;;;;;5.37;2.27;;;11.90;89.30;;;;;;5054293;28;20485;-79
2021/03/28 09:15:10;;;;;;;5.40;2.13;;;12.10;88.90;;;;;;5054206;28;20444;-79
2021/03/28 09:17:48;;;;;;;6.57;2.40;;;12.30;87.30;;;;;;5039888;28;20442;-79
2021/03/28 09:20:54;;;;;;;6.50;2.03;;;12.30;85.90;;;;;;5033232;28;20446;-80
2021/03/28 09:23:47;;;;;;;9.03;2.33;;;12.40;85.60;;;;;;5030125;28;20561;-79
2021/03/28 09:26:24;;;;;;;7.23;2.00;;;12.40;83.70;;;;;;5039306;28;20572;-79
2021/03/28 09:29:04;;;;;;;4.57;1.40;;;12.40;83.20;;;;;;5057772;28;20535;-79
2021/03/28 09:31:41;;;;;;;7.23;1.60;;;12.40;81.60;;;;;;5077828;28;20460;-79
2021/03/28 09:34:36;;;;;;;6.73;1.97;;;12.40;80.90;;;;;;5075130;28;20861;-79
2021/03/28 09:37:12;;;;;;;3.70;1.50;;;12.50;79.30;;;;;;5034819;28;20449;-79
2021/03/28 09:40:06;;;;;;;6.00;1.60;;;12.60;75.80;;;;;;5035073;28;20499;-80
2021/03/28 09:43:01;;;;;;;4.97;1.53;;;12.60;75.00;;;;;;5035293;28;20600;-80
2021/03/28 09:46:09;;;;;;;4.63;1.60;;;12.70;74.40;;;;;;5044788;28;20523;-80
2021/03/28 09:49:19;;;;;;;5.30;1.63;;;12.70;75.30;;;;;;5020304;28;20499;-79
2021/03/28 09:52:08;;;;;;;9.77;2.30;;;12.80;75.50;;;;;;5057785;28;20541;-80
2021/03/28 09:55:09;;;;;;;3.23;1.50;;;12.80;75.40;;;;;;5031599;28;20473;-80
2021/03/28 09:58:08;;;;;;;9.00;2.17;;;12.80;74.00;;;;;;5036527;28;20456;-80
2021/03/28 10:01:06;;;;;;;5.37;2.00;;;12.80;73.20;;;;;;5055688;28;20439;-80
2021/03/28 10:03:43;;;;;;;5.53;1.77;;;12.90;73.60;;;;;;5065923;28;20457;-82
2021/03/28 10:06:15;;;;;;;3.90;1.53;;;13.00;73.70;;;;;;5054981;28;20491;-80
2021/03/28 10:08:44;;;;;;;6.50;2.10;;;13.20;72.70;;;;;;5054730;28;20463;-79
2021/03/28 10:11:22;;;;;;;7.07;1.77;;;13.30;72.70;;;;;;5051399;28;20508;-79
2021/03/28 10:14:23;;;;;;;6.77;2.20;;;13.40;72.50;;;;;;5047926;28;20445;-79
2021/03/28 10:17:20;;;;;;;5.83;2.13;;;13.30;71.10;;;;;;5054075;28;20868;-79
2021/03/28 10:19:49;;;;;;;8.00;1.67;;;13.20;69.20;;;;;;5053751;28;20449;-79
2021/03/28 10:22:38;;;;;;;7.20;2.07;;;13.20;69.10;;;;;;5053623;28;20542;-79
2021/03/28 10:25:31;;;;;;;4.40;1.83;;;13.30;69.10;;;;;;5055079;28;20863;-79
2021/03/28 10:28:38;;;;;;;5.50;2.20;;;13.30;69.50;;;;;;5035052;28;20464;-80
2021/03/28 10:31:21;;;;;;;6.93;1.80;;;13.40;68.00;;;;;;5034421;28;20541;-79
2021/03/28 10:34:05;;;;;;;6.07;1.87;;;13.50;68.30;;;;;;5053727;28;20419;-79
2021/03/28 10:36:41;;;;;;;5.70;2.03;;;13.50;67.60;;;;;;5052608;28;20463;-79
2021/03/28 10:39:32;;;;;;;3.93;1.70;;;13.50;67.70;;;;;;5052739;28;20419;-79
2021/03/28 10:42:24;;;;;;;4.57;2.00;;;13.40;67.30;;;;;;5044300;28;20596;-79
2021/03/28 10:45:29;;;;;;;7.83;2.00;;;13.50;67.10;;;;;;5032710;28;21004;-79
2021/03/28 10:48:45;;;;;;;5.83;1.97;;;13.50;66.70;;;;;;5033148;28;21186;-80
2021/03/28 10:52:00;;;;;;;4.07;2.10;;;13.50;66.50;;;;;;4976613;28;20475;-79
2021/03/28 10:55:01;;;;;;;5.87;2.10;;;13.30;67.00;;;;;;5032749;28;20456;-79
2021/03/28 10:58:24;;;;;;;4.80;1.77;;;13.30;67.10;;;;;;5031986;28;20583;-79
2021/03/28 11:01:20;;;;;;;4.60;1.70;;;13.50;66.10;;;;;;5032843;28;20478;-79
2021/03/28 11:04:19;;;;;;;5.70;1.83;;;13.40;65.90;;;;;;5032001;28;20450;-79
2021/03/28 11:07:07;;;;;;;4.70;1.80;;;13.40;65.70;;;;;;5033335;28;20489;-79
2021/03/28 11:10:15;;;;;;;4.73;2.00;;;13.60;65.50;;;;;;5034035;28;20460;-79
2021/03/28 11:13:05;;;;;;;3.57;1.70;;;13.60;65.00;;;;;;5026898;28;20821;-79
2021/03/28 11:15:46;;;;;;;6.73;2.50;;;13.70;64.90;;;;;;5053492;28;20514;-79
2021/03/28 11:18:57;;;;;;;5.83;1.77;;;13.60;64.40;;;;;;5060393;28;20453;-79
2021/03/28 11:21:31;;;;;;;5.27;2.00;;;13.70;65.00;;;;;;5088904;22;20505;-84
2021/03/28 11:24:26;;;;;;;6.83;1.90;;;13.90;65.00;;;;;;5086269;28;20447;-83
2021/03/28 11:27:42;;;;;;;7.17;2.17;;;14.00;64.50;;;;;;5079076;28;20437;-84
2021/03/28 11:30:19;;;;;;;4.50;1.60;;;14.00;64.60;;;;;;5034589;28;20464;-84
2021/03/28 11:33:10;;;;;;;6.07;1.87;;;14.10;64.00;;;;;;5061440;28;20455;-83
2021/03/28 11:35:40;;;;;;;4.63;1.67;;;14.00;64.70;;;;;;5058018;28;20643;-83
2021/03/28 11:38:42;;;;;;;6.00;2.37;;;14.20;64.30;;;;;;5058834;28;20427;-82
2021/03/28 11:41:51;;;;;;;6.37;2.40;;;14.20;63.60;;;;;;5036065;28;20555;-83
2021/03/28 11:44:22;;;;;;;6.50;2.13;;;14.20;64.40;;;;;;5058920;28;20485;-82
2021/03/28 11:46:56;;;;;;;8.63;3.20;;;14.20;65.30;;;;;;5060824;28;20423;-82
2021/03/28 11:49:25;;;;;;;8.30;2.70;;;14.30;64.50;;;;;;5068592;28;20544;-85
2021/03/28 11:52:20;;;;;;;8.03;2.30;;;14.30;63.80;;;;;;5050968;28;20536;-86
2021/03/28 11:55:14;;;;;;;3.93;1.60;;;14.50;64.00;;;;;;5040363;28;20461;-84
2021/03/28 11:57:42;;;;;;;5.20;1.93;;;14.50;63.80;;;;;;5045484;28;20495;-83
2021/03/28 12:00:39;;;;;;;8.97;2.17;;;14.50;63.70;;;;;;5070259;28;20440;-83
2021/03/28 12:03:25;;;;;;;4.97;2.30;;;14.60;62.70;;;;;;5071916;28;20444;-83
2021/03/28 12:05:56;;;;;;;9.43;3.10;;;14.70;61.10;;;;;;5060986;28;20404;-84
2021/03/28 12:08:25;;;;;;;4.23;2.00;;;14.70;61.40;;;;;;5059680;28;20490;-85
2021/03/28 12:10:51;;;;;;;5.60;2.60;;;14.80;61.60;;;;;;5050478;28;20480;-84
2021/03/28 12:13:32;;;;;;;7.73;2.47;;;14.90;61.30;;;;;;5039286;28;20484;-86
2021/03/28 12:16:02;;;;;;;5.70;2.27;;;14.90;60.50;;;;;;5039327;28;20428;-86
2021/03/28 12:18:52;;;;;;;6.13;2.33;;;14.90;60.30;;;;;;5038921;28;20889;-83
2021/03/28 12:21:43;;;;;;;8.20;2.60;;;14.90;60.30;;;;;;5051392;28;20550;-86
2021/03/28 12:24:12;;;;;;;7.73;2.60;;;14.80;60.80;;;;;;5058844;28;20459;-84
2021/03/28 12:26:52;;;;;;;4.63;1.90;;;14.90;60.90;;;;;;5078286;28;20437;-84
2021/03/28 12:29:38;;;;;;;5.33;3.00;;;14.80;60.40;;;;;;5079537;28;20587;-84
2021/03/28 12:32:48;;;;;;;7.27;2.17;;;14.80;60.80;;;;;;5041774;28;20465;-85
2021/03/28 12:35:20;;;;;;;6.50;2.13;;;14.90;61.30;;;;;;5039405;28;20428;-84
2021/03/28 12:37:49;;;;;;;8.73;2.20;;;15.00;61.10;;;;;;5038613;28;20803;-85
2021/03/28 12:40:27;;;;;;;6.63;2.10;;;15.00;61.10;;;;;;5038603;28;20572;-87
2021/03/28 12:42:54;;;;;;;10.70;2.60;;;15.00;59.50;;;;;;5047877;28;20440;-86
2021/03/28 12:45:37;;;;;;;5.13;2.30;;;15.10;59.50;;;;;;5064160;28;20473;-84
2021/03/28 12:48:19;;;;;;;4.17;2.10;;;15.20;59.40;;;;;;5066359;28;20903;-83
2021/03/28 12:50:49;;;;;;;5.20;2.30;;;15.20;59.70;;;;;;5062983;28;20447;-86
2021/03/28 12:53:18;;;;;;;7.33;1.90;;;15.20;59.40;;;;;;5059070;28;20449;-86
2021/03/28 12:55:47;;;;;;;4.40;2.23;;;15.40;59.50;;;;;;5058226;28;20465;-86
2021/03/28 12:58:23;;;;;;;5.90;2.30;;;15.40;59.50;;;;;;5059150;28;20510;-85
2021/03/28 13:01:01;;;;;;;4.53;2.07;;;15.40;58.90;;;;;;5050640;28;20456;-83
2021/03/28 13:03:34;;;;;;;5.23;2.20;;;15.40;58.90;;;;;;5036557;28;20434;-84
2021/03/28 13:06:32;;;;;;;5.20;1.60;;;15.50;59.20;;;;;;5035765;28;20440;-85
2021/03/28 13:09:02;;;;;;;6.30;2.10;;;15.40;59.20;;;;;;5036142;28;20606;-85
2021/03/28 13:11:39;;;;;;;5.47;2.57;;;15.60;59.50;;;;;;5037158;28;20878;-84
2021/03/28 13:14:07;;;;;;;5.60;1.83;;;15.60;59.40;;;;;;5035946;28;20419;-84
2021/03/28 13:16:36;;;;;;;4.20;1.67;;;15.70;59.10;;;;;;5036006;28;20485;-83
2021/03/28 13:19:04;;;;;;;5.43;2.13;;;15.70;58.50;;;;;;5035791;28;20446;-84
2021/03/28 13:21:34;;;;;;;7.17;2.00;;;15.70;58.90;;;;;;5057975;28;20468;-85
2021/03/28 13:24:07;;;;;;;4.50;2.10;;;15.70;58.90;;;;;;5072851;28;20456;-84
2021/03/28 13:26:35;;;;;;;6.97;2.13;;;15.70;59.00;;;;;;5080343;28;20452;-84
2021/03/28 13:29:22;;;;;;;7.43;2.33;;;15.70;59.20;;;;;;5080864;28;20458;-84
2021/03/28 13:31:56;;;;;;;4.30;1.50;;;15.70;59.00;;;;;;5066438;28;20454;-85
2021/03/28 13:34:37;;;;;;;4.03;1.60;;;15.80;58.20;;;;;;5061631;28;20595;-85
2021/03/28 13:37:16;;;;;;;4.37;2.20;;;15.80;58.00;;;;;;5061043;28;20478;-83
2021/03/28 13:39:58;;;;;;;5.63;1.97;;;15.80;58.30;;;;;;5069837;28;20488;-85
2021/03/28 13:42:30;;;;;;;5.50;1.80;;;15.90;58.80;;;;;;5070294;28;20457;-83
2021/03/28 13:45:00;;;;;;;6.07;2.30;;;16.10;58.30;;;;;;5066220;28;20443;-83
2021/03/28 13:47:48;;;;;;;6.73;2.20;;;16.00;57.60;;;;;;5059234;28;20749;-85
2021/03/28 13:50:48;;;;;;;5.87;1.97;;;16.20;57.90;;;;;;5054987;28;20940;-85
2021/03/28 13:53:28;;;;;;;5.07;2.20;;;16.20;57.30;;;;;;5057208;28;20449;-85
2021/03/28 13:56:29;;;;;;;4.10;1.50;;;16.30;57.20;;;;;;5059855;28;20460;-83
2021/03/28 13:59:12;;;;;;;4.73;1.83;;;16.30;56.90;;;;;;5059458;28;20518;-84
2021/03/28 14:01:51;;;;;;;4.97;1.83;;;16.30;56.90;;;;;;5054002;28;20465;-83
2021/03/28 14:04:24;;;;;;;6.40;1.97;;;16.30;57.30;;;;;;5058566;28;20490;-85
2021/03/28 14:07:08;;;;;;;6.40;2.33;;;16.40;56.90;;;;;;5058436;28;21114;-84
2021/03/28 14:09:38;;;;;;;5.20;2.00;;;16.30;56.60;;;;;;5058842;28;20532;-84
2021/03/28 14:12:16;;;;;;;4.57;1.90;;;16.30;56.90;;;;;;5057307;28;21000;-84
2021/03/28 14:14:46;;;;;;;6.33;1.73;;;16.40;57.10;;;;;;5061816;28;20443;-84
2021/03/28 14:17:21;;;;;;;4.87;1.40;;;16.60;57.10;;;;;;5058513;28;20443;-83
2021/03/28 14:19:49;;;;;;;5.03;2.03;;;16.70;56.50;;;;;;5058381;28;20867;-85
2021/03/28 14:22:26;;;;;;;4.93;1.70;;;16.90;56.00;;;;;;5040089;28;20447;-84
2021/03/28 14:24:57;;;;;;;3.53;1.83;;;17.00;56.00;;;;;;5044952;28;20534;-83
2021/03/28 14:27:28;;;;;;;5.33;2.33;;;17.00;54.90;;;;;;5074551;28;20509;-84
2021/03/28 14:30:02;;;;;;;6.40;2.37;;;17.10;55.10;;;;;;5076746;28;20568;-84
2021/03/28 14:32:35;;;;;;;7.07;2.00;;;17.20;54.30;;;;;;5059901;28;20840;-86
2021/03/28 14:35:30;;;;;;;7.23;2.13;;;17.30;53.90;;;;;;5056781;28;20976;-85
2021/03/28 14:38:42;;;;;;;4.20;2.00;;;17.30;53.80;;;;;;5057591;28;20543;-84